createdAt,value
2022-12-04T00:04:25.350Z,41.50
2022-12-04T00:09:40.323Z,41.70
2022-12-04T00:20:30.632Z,42.10
2022-12-04T00:25:46.367Z,41.90
2022-12-04T00:31:01.322Z,41.80
2022-12-04T00:36:16.622Z,42.40
2022-12-04T00:41:32.393Z,42.40
2022-12-04T00:46:47.320Z,42.90
2022-12-04T00:52:02.305Z,43.60
2022-12-04T00:57:17.343Z,42.90
2022-12-04T01:02:32.421Z,42.70
2022-12-04T01:07:47.741Z,42.60
2022-12-04T01:13:03.694Z,42.40
2022-12-04T01:18:19.350Z,42.40
2022-12-04T01:23:34.068Z,42.40
2022-12-04T01:28:49.338Z,42.40
2022-12-04T01:34:04.340Z,42.40
2022-12-04T01:39:19.320Z,42.40
2022-12-04T01:44:34.333Z,42.50
2022-12-04T01:49:49.300Z,42.50
2022-12-04T01:55:04.580Z,42.40
2022-12-04T02:00:20.295Z,42.50
2022-12-04T02:05:35.634Z,42.80
2022-12-04T02:10:51.396Z,42.70
2022-12-04T02:16:06.688Z,42.60
2022-12-04T02:21:22.320Z,42.90
2022-12-04T02:26:37.308Z,42.60
2022-12-04T02:31:52.361Z,42.40
2022-12-04T02:37:07.371Z,42.40
2022-12-04T02:42:22.711Z,42.40
2022-12-04T02:47:38.357Z,42.40
2022-12-04T02:52:53.339Z,42.20
2022-12-04T02:58:08.301Z,41.90
2022-12-04T03:03:24.346Z,42.40
2022-12-04T03:08:39.420Z,42.20
2022-12-04T03:13:54.315Z,42.50
2022-12-04T03:19:09.366Z,42.60
2022-12-04T03:24:24.428Z,42.20
2022-12-04T03:29:39.322Z,42.60
2022-12-04T03:34:54.304Z,42.50
2022-12-04T03:40:09.617Z,42.80
2022-12-04T03:45:25.612Z,42.50
2022-12-04T03:50:41.316Z,42.80
2022-12-04T03:55:56.294Z,43.00
2022-12-04T04:01:11.365Z,42.60
2022-12-04T04:06:26.692Z,42.10
2022-12-04T04:11:42.403Z,42.10
2022-12-04T04:16:57.342Z,42.00
2022-12-04T04:22:12.384Z,42.30
2022-12-04T04:27:27.348Z,42.50
2022-12-04T04:32:42.296Z,42.40
2022-12-04T04:37:57.338Z,42.60
2022-12-04T04:43:12.641Z,42.50
2022-12-04T04:48:28.746Z,42.40
2022-12-04T04:53:44.326Z,42.30
2022-12-04T04:59:00.327Z,42.70
2022-12-04T05:04:15.316Z,42.30
2022-12-04T05:09:30.663Z,42.10
2022-12-04T05:14:46.372Z,42.30
2022-12-04T05:20:01.338Z,42.40
2022-12-04T05:25:16.452Z,42.40
2022-12-04T05:30:31.711Z,42.60
2022-12-04T05:35:47.396Z,42.80
2022-12-04T05:41:02.542Z,43.00
2022-12-04T05:46:18.473Z,42.90
2022-12-04T05:51:34.358Z,43.00
2022-12-04T05:56:49.404Z,42.50
2022-12-04T06:02:04.370Z,42.60
2022-12-04T06:07:19.445Z,42.60
2022-12-04T06:12:34.636Z,42.70
2022-12-04T06:17:50.386Z,42.80
2022-12-04T06:23:05.619Z,43.00
2022-12-04T06:28:21.329Z,42.50
2022-12-04T06:33:36.661Z,42.50
2022-12-04T06:38:52.623Z,42.40
2022-12-04T06:44:08.364Z,42.40
2022-12-04T06:49:23.172Z,42.80
2022-12-04T06:54:38.674Z,42.70
2022-12-04T06:59:54.737Z,42.50
2022-12-04T07:05:11.093Z,42.60
2022-12-04T07:10:26.451Z,42.50
2022-12-04T07:15:41.376Z,42.60
2022-12-04T07:20:56.330Z,42.50
2022-12-04T07:26:11.634Z,42.30
2022-12-04T07:31:28.886Z,42.40
2022-12-04T07:36:44.613Z,42.30
2022-12-04T07:42:00.236Z,42.30
2022-12-04T07:47:15.375Z,42.00
2022-12-04T07:52:31.074Z,42.10
2022-12-04T07:57:46.631Z,42.70
2022-12-04T08:03:02.448Z,42.40
2022-12-04T08:08:17.589Z,41.90
2022-12-04T08:16:21.726Z,40.40
2022-12-04T08:21:36.438Z,41.30
2022-12-04T08:26:51.726Z,40.80
2022-12-04T08:32:06.930Z,40.80
2022-12-04T08:37:22.960Z,40.70
2022-12-04T08:42:38.981Z,40.30
2022-12-04T08:47:54.625Z,40.00
2022-12-04T08:53:09.699Z,39.80
2022-12-04T08:58:24.590Z,39.50
2022-12-04T09:03:39.692Z,39.30
2022-12-04T09:08:54.607Z,39.10
2022-12-04T09:14:09.974Z,39.00
2022-12-04T09:19:25.688Z,38.90
2022-12-04T09:24:40.947Z,38.80
2022-12-04T09:29:57.056Z,38.80
2022-12-04T09:35:12.660Z,41.20
2022-12-04T09:40:35.209Z,42.00
2022-12-04T09:45:53.757Z,42.40
2022-12-04T09:51:08.610Z,42.30
2022-12-04T09:56:24.566Z,42.40
2022-12-04T10:01:39.647Z,42.20
2022-12-04T10:06:54.683Z,41.50
2022-12-04T10:12:09.658Z,41.10
2022-12-04T10:17:27.995Z,40.70
2022-12-04T10:22:46.635Z,40.40
2022-12-04T10:28:01.599Z,40.30
2022-12-04T10:33:16.651Z,40.00
2022-12-04T10:38:32.015Z,39.80
2022-12-04T10:43:47.628Z,39.70
2022-12-04T10:49:02.613Z,39.60
2022-12-04T10:54:18.091Z,39.30
2022-12-04T10:59:33.602Z,39.10
2022-12-04T11:04:49.025Z,39.00
2022-12-04T11:10:05.698Z,41.20
2022-12-04T11:15:20.790Z,40.80
2022-12-04T11:20:35.703Z,40.60
2022-12-04T11:25:50.650Z,40.30
2022-12-04T11:31:05.770Z,40.30
2022-12-04T11:36:21.818Z,40.60
2022-12-04T11:41:37.683Z,40.80
2022-12-04T11:46:52.641Z,40.40
2022-12-04T11:52:07.693Z,40.10
2022-12-04T11:57:23.024Z,39.90
2022-12-04T12:02:38.769Z,39.80
2022-12-04T12:07:57.651Z,39.60
2022-12-04T12:13:17.718Z,39.60
2022-12-04T12:18:32.712Z,39.20
2022-12-04T12:23:47.982Z,39.00
2022-12-04T12:29:03.859Z,38.90
2022-12-04T12:34:19.679Z,39.00
2022-12-04T12:39:34.640Z,39.00
2022-12-04T12:44:49.686Z,38.90
2022-12-04T12:50:06.038Z,39.00
2022-12-04T12:55:21.656Z,38.80
2022-12-04T13:00:36.692Z,38.90
2022-12-04T13:05:51.674Z,38.80
2022-12-04T13:11:06.373Z,38.80
2022-12-04T13:16:21.728Z,39.70
2022-12-04T13:21:36.685Z,38.90
2022-12-04T13:26:51.680Z,39.00
2022-12-04T13:32:06.733Z,38.40
2022-12-04T13:37:21.678Z,38.30
2022-12-04T13:42:37.143Z,38.50
2022-12-04T13:47:52.651Z,38.80
2022-12-04T13:53:07.772Z,38.90
2022-12-04T13:58:22.377Z,38.80
2022-12-04T14:03:37.640Z,38.70
2022-12-04T14:08:52.679Z,38.60
2022-12-04T14:14:08.350Z,39.00
2022-12-04T14:19:23.684Z,39.10
2022-12-04T14:24:38.999Z,38.90
2022-12-04T14:29:54.667Z,38.80
2022-12-04T14:35:09.678Z,39.00
2022-12-04T14:40:24.437Z,39.00
2022-12-04T14:45:40.000Z,38.80
2022-12-04T14:50:55.954Z,39.00
2022-12-04T14:56:11.393Z,39.20
2022-12-04T15:01:29.319Z,39.40
2022-12-04T15:06:44.709Z,39.30
2022-12-04T15:11:59.681Z,39.30
2022-12-04T15:17:14.751Z,39.30
2022-12-04T15:22:29.644Z,39.20
2022-12-04T15:27:44.673Z,38.80
2022-12-04T15:32:59.620Z,38.60
2022-12-04T15:38:14.617Z,38.50
2022-12-04T15:43:31.368Z,38.50
2022-12-04T15:48:48.146Z,38.50
2022-12-04T15:54:04.626Z,38.70
2022-12-04T15:59:20.034Z,38.90
2022-12-04T16:04:38.849Z,38.90
2022-12-04T16:10:02.824Z,39.20
2022-12-04T16:15:19.664Z,39.00
2022-12-04T16:20:34.662Z,39.00
2022-12-04T16:25:53.421Z,39.10
2022-12-04T16:31:08.805Z,38.90
2022-12-04T16:36:23.705Z,39.00
2022-12-04T16:41:38.685Z,38.70
2022-12-04T16:46:53.691Z,38.70
2022-12-04T16:52:09.079Z,38.70
2022-12-04T16:57:24.519Z,38.90
2022-12-04T17:02:39.641Z,39.00
2022-12-04T17:07:55.015Z,38.90
2022-12-04T17:13:10.662Z,39.50
2022-12-04T17:18:25.670Z,38.80
2022-12-04T17:23:40.602Z,38.60
2022-12-04T17:28:55.500Z,38.60
2022-12-04T17:34:10.680Z,38.50
2022-12-04T17:39:25.618Z,38.50
2022-12-04T17:44:40.680Z,38.70
2022-12-04T17:49:55.488Z,38.80
2022-12-04T17:55:10.766Z,39.00
2022-12-04T18:00:25.725Z,38.90
2022-12-04T18:05:40.679Z,39.00
2022-12-04T18:10:55.720Z,39.30
2022-12-04T18:16:11.520Z,39.30
2022-12-04T18:21:26.647Z,39.40
2022-12-04T18:26:42.942Z,39.40
2022-12-04T18:31:58.498Z,39.30
2022-12-04T18:37:14.651Z,40.60
2022-12-04T18:42:29.691Z,42.80
2022-12-04T18:47:44.676Z,43.70
2022-12-04T18:53:01.274Z,44.40
2022-12-04T18:58:16.634Z,44.50
2022-12-04T19:03:31.908Z,44.60
2022-12-04T19:08:48.675Z,44.60
2022-12-04T19:14:10.279Z,44.60
2022-12-04T19:19:31.889Z,44.50
2022-12-04T19:24:47.893Z,44.50
2022-12-04T19:30:03.666Z,44.50
2022-12-04T19:35:18.424Z,44.30
2022-12-04T19:40:33.720Z,44.10
2022-12-04T19:45:48.695Z,44.00
2022-12-04T19:51:03.735Z,44.00
2022-12-04T19:56:18.666Z,43.70
2022-12-04T20:01:33.685Z,43.80
2022-12-04T20:06:48.445Z,43.60
2022-12-04T20:12:04.096Z,43.50
2022-12-04T20:17:19.690Z,43.50
2022-12-04T20:22:34.717Z,43.50
2022-12-04T20:27:49.675Z,43.40
2022-12-04T20:33:04.974Z,43.50
2022-12-04T20:38:21.060Z,43.40
2022-12-04T20:43:36.949Z,43.30
2022-12-04T20:48:53.082Z,43.40
2022-12-04T20:54:08.693Z,43.50
2022-12-04T20:59:23.810Z,43.70
2022-12-04T21:04:38.652Z,44.00
2022-12-04T21:09:53.786Z,44.00
2022-12-04T21:15:08.736Z,44.00
2022-12-04T21:20:23.685Z,43.90
2022-12-04T21:25:38.632Z,44.00
2022-12-04T21:30:53.749Z,44.10
2022-12-04T21:36:08.715Z,44.30
2022-12-04T21:41:23.985Z,44.50
2022-12-04T21:46:39.721Z,44.50
2022-12-04T21:51:57.810Z,45.30
2022-12-04T21:57:13.709Z,45.20
2022-12-04T22:02:28.742Z,44.80
2022-12-04T22:07:43.747Z,44.70
2022-12-04T22:12:58.718Z,44.30
2022-12-04T22:18:13.638Z,44.50
2022-12-04T22:23:28.727Z,44.60
2022-12-04T22:28:43.721Z,44.70
2022-12-04T22:33:59.029Z,44.70
2022-12-04T22:39:14.712Z,44.60
2022-12-04T22:44:29.446Z,44.80
2022-12-04T22:49:45.018Z,44.60
2022-12-04T22:55:00.561Z,45.00
2022-12-04T23:00:15.696Z,45.20
2022-12-04T23:05:30.700Z,45.40
2022-12-04T23:10:45.461Z,45.50
2022-12-04T23:16:04.893Z,45.40
2022-12-04T23:21:23.692Z,45.40
2022-12-04T23:26:38.649Z,45.00
2022-12-04T23:31:53.793Z,44.50
2022-12-04T23:37:09.034Z,44.90
2022-12-04T23:42:24.677Z,44.50
2022-12-04T23:47:39.687Z,45.00
2022-12-04T23:52:54.702Z,45.10
2022-12-04T23:58:09.682Z,45.10
